TAF KSGF
KSGF 280520Z 2806/2906 30005KT P6SM FEW250 FM281200 35007KT P6SM FEW250 FM290200 22004KT P6SM SKC=
METAR KSGF
WC KSGF
WS KSGF
WV KSGF